Time;durP1;ratioP1;P1;durP2;ratioP2;P2;SDS_P1;SDS_P2;PMS_P1;PMS_P2;Temp;Humidity;BMP_temperature;BMP_pressure;BME280_temperature;BME280_humidity;BME280_pressure;Samples;Min_cycle;Max_cycle;Signal;HPM_P1;HPM_P2
2023/06/15 00:02:17;;;;;;;6.43;5.10;;;;;;;;;;5054255;28;20545;-81
2023/06/15 00:04:44;;;;;;;7.65;4.93;;;;;;;;;;5036167;28;20415;-83
2023/06/15 00:07:11;;;;;;;7.45;5.40;;;;;;;;;;5035010;28;20049;-83
2023/06/15 00:09:37;;;;;;;7.05;5.10;;;;;;;;;;5033675;28;20084;-81
2023/06/15 00:12:08;;;;;;;6.85;5.40;;;;;;;;;;5033223;28;20605;-82
2023/06/15 00:14:35;;;;;;;6.88;5.55;;;;;;;;;;5033670;28;20518;-80
2023/06/15 00:17:04;;;;;;;7.38;5.20;;;;;;;;;;5033656;28;20054;-81
2023/06/15 00:19:30;;;;;;;7.15;5.32;;;;;;;;;;5033341;28;20531;-81
2023/06/15 00:21:57;;;;;;;6.80;5.50;;;;;;;;;;5044764;28;20049;-81
2023/06/15 00:24:25;;;;;;;7.47;5.38;;;;;;;;;;5053529;28;20544;-81
2023/06/15 00:26:52;;;;;;;6.68;5.43;;;;;;;;;;5053873;28;20045;-81
2023/06/15 00:29:19;;;;;;;7.70;5.15;;;;;;;;;;5054012;28;20156;-81
2023/06/15 00:31:46;;;;;;;7.72;5.40;;;;;;;;;;5039293;28;20221;-82
2023/06/15 00:34:14;;;;;;;8.15;5.60;;;;;;;;;;5034976;28;20508;-82
2023/06/15 00:36:40;;;;;;;8.80;5.80;;;;;;;;;;5035109;28;20045;-82
2023/06/15 00:39:07;;;;;;;7.80;5.57;;;;;;;;;;5035219;28;20091;-81
2023/06/15 00:41:41;;;;;;;7.68;5.47;;;;;;;;;;5035601;28;20069;-81
2023/06/15 00:44:08;;;;;;;9.15;6.40;;;;;;;;;;5036710;28;20052;-82
2023/06/15 00:46:36;;;;;;;8.68;5.50;;;;;;;;;;5038555;28;20088;-81
2023/06/15 00:49:03;;;;;;;7.70;5.35;;;;;;;;;;5046854;28;20036;-80
2023/06/15 00:51:32;;;;;;;9.93;5.95;;;;;;;;;;5059460;28;20052;-81
2023/06/15 00:53:59;;;;;;;10.02;6.18;;;;;;;;;;5059555;28;20056;-82
2023/06/15 00:56:29;;;;;;;10.35;6.03;;;;;;;;;;5059720;28;20041;-82
2023/06/15 00:58:56;;;;;;;10.13;6.28;;;;;;;;;;5042119;28;20452;-81
2023/06/15 01:01:23;;;;;;;9.35;6.35;;;;;;;;;;5018877;28;20096;-81
2023/06/15 01:03:50;;;;;;;11.38;6.85;;;;;;;;;;5018465;28;20481;-80
2023/06/15 01:06:19;;;;;;;8.13;5.85;;;;;;;;;;5018895;28;20469;-81
2023/06/15 01:08:52;;;;;;;9.80;6.57;;;;;;;;;;5017995;28;20053;-81
2023/06/15 01:11:21;;;;;;;9.88;6.22;;;;;;;;;;5042770;28;20041;-81
2023/06/15 01:13:49;;;;;;;9.75;6.38;;;;;;;;;;5058225;28;20053;-80
2023/06/15 01:16:22;;;;;;;7.18;5.97;;;;;;;;;;5057616;28;20064;-82
2023/06/15 01:18:56;;;;;;;8.77;6.28;;;;;;;;;;5056915;28;20049;-81
2023/06/15 01:21:26;;;;;;;10.90;6.00;;;;;;;;;;5057661;28;20136;-81
2023/06/15 01:24:05;;;;;;;6.85;5.82;;;;;;;;;;5057681;28;20074;-81
2023/06/15 01:26:34;;;;;;;8.07;6.40;;;;;;;;;;5057999;28;20040;-82
2023/06/15 01:29:03;;;;;;;11.27;6.78;;;;;;;;;;5039807;28;20169;-81
2023/06/15 01:31:30;;;;;;;7.32;6.15;;;;;;;;;;5045249;28;20045;-81
2023/06/15 01:34:00;;;;;;;7.43;6.00;;;;;;;;;;5058212;28;20078;-82
2023/06/15 01:36:27;;;;;;;8.93;6.40;;;;;;;;;;5058184;28;20041;-81
2023/06/15 01:38:57;;;;;;;8.30;6.18;;;;;;;;;;5057414;28;20618;-82
2023/06/15 01:41:27;;;;;;;7.30;5.95;;;;;;;;;;5047364;28;20072;-81
2023/06/15 01:43:56;;;;;;;;;;;;;;;;;;5035879;28;20191;-82
2023/06/15 01:46:23;;;;;;;8.80;5.93;;;;;;;;;;5034182;28;19979;-81
2023/06/15 01:48:54;;;;;;;8.10;5.93;;;;;;;;;;5034973;28;20124;-82
2023/06/15 01:51:23;;;;;;;8.23;6.18;;;;;;;;;;5040321;28;20041;-82
2023/06/15 01:53:50;;;;;;;6.90;5.80;;;;;;;;;;5036095;28;20135;-80
2023/06/15 01:56:17;;;;;;;8.50;6.38;;;;;;;;;;5033769;28;20434;-82
2023/06/15 01:58:45;;;;;;;9.40;6.40;;;;;;;;;;5049584;28;20485;-81
2023/06/15 02:01:13;;;;;;;7.13;5.80;;;;;;;;;;5053611;28;20049;-81
2023/06/15 02:03:56;;;;;;;8.95;6.07;;;;;;;;;;5035268;28;20042;-81
2023/06/15 02:06:22;;;;;;;9.65;6.13;;;;;;;;;;5032746;28;20132;-81
2023/06/15 02:08:49;;;;;;;8.38;6.43;;;;;;;;;;5035556;28;20132;-81
2023/06/15 02:11:18;;;;;;;9.95;6.88;;;;;;;;;;5036559;28;20038;-81
2023/06/15 02:13:45;;;;;;;8.90;6.32;;;;;;;;;;5050584;28;20077;-80
2023/06/15 02:16:15;;;;;;;8.68;6.53;;;;;;;;;;5044915;28;20084;-82
2023/06/15 02:18:44;;;;;;;7.00;6.30;;;;;;;;;;5038921;28;20073;-81
2023/06/15 02:21:14;;;;;;;7.07;5.80;;;;;;;;;;5037648;28;20552;-80
2023/06/15 02:23:41;;;;;;;7.15;6.10;;;;;;;;;;5052238;28;20048;-81
2023/06/15 02:26:08;;;;;;;11.23;6.55;;;;;;;;;;5056476;28;20048;-82
2023/06/15 02:28:37;;;;;;;9.05;6.03;;;;;;;;;;5056307;28;20045;-81
2023/06/15 02:31:05;;;;;;;9.63;6.88;;;;;;;;;;5053906;28;20052;-81
2023/06/15 02:33:37;;;;;;;8.73;5.90;;;;;;;;;;5043622;28;20049;-81
2023/06/15 02:36:06;;;;;;;9.20;6.30;;;;;;;;;;5033869;28;20060;-80
2023/06/15 02:38:32;;;;;;;8.13;6.25;;;;;;;;;;5033672;28;20053;-81
2023/06/15 02:40:59;;;;;;;7.68;6.35;;;;;;;;;;5033227;28;20132;-80
2023/06/15 02:43:26;;;;;;;8.02;6.50;;;;;;;;;;5033112;28;20662;-81
2023/06/15 02:45:53;;;;;;;10.57;6.40;;;;;;;;;;5033375;28;20103;-79
2023/06/15 02:48:20;;;;;;;6.93;6.10;;;;;;;;;;5033262;28;20045;-80
2023/06/15 02:50:48;;;;;;;8.98;6.30;;;;;;;;;;5033229;28;20107;-81
2023/06/15 02:53:14;;;;;;;9.50;6.30;;;;;;;;;;5033274;28;20136;-81
2023/06/15 02:55:41;;;;;;;7.47;6.18;;;;;;;;;;5045673;28;20105;-81
2023/06/15 02:58:08;;;;;;;8.82;6.53;;;;;;;;;;5051821;28;20097;-82
2023/06/15 03:00:36;;;;;;;8.18;6.28;;;;;;;;;;5053574;28;20048;-80
2023/06/15 03:03:03;;;;;;;7.93;6.30;;;;;;;;;;5054748;28;20049;-82
2023/06/15 03:05:30;;;;;;;8.43;6.00;;;;;;;;;;5056030;28;20109;-81
2023/06/15 03:08:01;;;;;;;7.97;6.05;;;;;;;;;;5055449;28;20135;-82
2023/06/15 03:10:28;;;;;;;7.25;5.90;;;;;;;;;;5047647;28;20050;-81
2023/06/15 03:12:54;;;;;;;8.35;5.90;;;;;;;;;;5036073;28;20073;-82
2023/06/15 03:15:22;;;;;;;8.25;6.25;;;;;;;;;;5037984;28;20057;-82
2023/06/15 03:17:48;;;;;;;9.35;6.75;;;;;;;;;;5057505;28;20051;-81
2023/06/15 03:20:15;;;;;;;8.25;6.18;;;;;;;;;;5057277;28;20076;-82
2023/06/15 03:22:42;;;;;;;7.97;6.05;;;;;;;;;;5057201;28;20087;-81
2023/06/15 03:25:10;;;;;;;9.30;6.68;;;;;;;;;;5056679;28;20037;-81
2023/06/15 03:27:37;;;;;;;9.93;7.03;;;;;;;;;;5050873;28;20493;-81
2023/06/15 03:30:05;;;;;;;8.55;6.22;;;;;;;;;;5035722;28;20111;-81
2023/06/15 03:32:33;;;;;;;9.18;6.80;;;;;;;;;;5037143;28;20053;-81
2023/06/15 03:35:00;;;;;;;9.52;6.20;;;;;;;;;;5038558;28;20420;-81
2023/06/15 03:37:27;;;;;;;8.20;6.60;;;;;;;;;;5038718;28;20050;-82
2023/06/15 03:39:53;;;;;;;8.40;6.32;;;;;;;;;;5037832;28;20041;-81
2023/06/15 03:42:22;;;;;;;7.47;6.47;;;;;;;;;;5038783;28;20633;-80
2023/06/15 03:44:48;;;;;;;8.25;6.72;;;;;;;;;;5038415;28;20643;-80
2023/06/15 03:47:15;;;;;;;10.48;7.05;;;;;;;;;;5054091;28;20111;-82
2023/06/15 03:49:42;;;;;;;9.13;6.78;;;;;;;;;;5060175;28;20046;-81
2023/06/15 03:52:09;;;;;;;7.60;6.10;;;;;;;;;;5066123;28;20049;-80
2023/06/15 03:54:36;;;;;;;9.13;6.80;;;;;;;;;;5063011;28;20045;-80
2023/06/15 03:57:02;;;;;;;7.95;6.80;;;;;;;;;;5057656;28;20087;-80
2023/06/15 03:59:30;;;;;;;7.93;6.82;;;;;;;;;;5040099;28;20045;-80
2023/06/15 04:01:57;;;;;;;9.50;6.78;;;;;;;;;;5044998;28;20505;-81
2023/06/15 04:04:24;;;;;;;8.52;6.57;;;;;;;;;;5047309;28;20038;-80
2023/06/15 04:06:53;;;;;;;8.65;6.95;;;;;;;;;;5045222;28;20045;-80
2023/06/15 04:09:20;;;;;;;9.32;6.90;;;;;;;;;;5046333;28;20116;-80
2023/06/15 04:11:47;;;;;;;7.97;7.03;;;;;;;;;;5044350;22;20041;-59
2023/06/15 04:14:14;;;;;;;8.05;6.80;;;;;;;;;;5025525;28;20050;-59
2023/06/15 04:16:42;;;;;;;9.77;7.30;;;;;;;;;;5026011;28;20386;-57
2023/06/15 04:19:09;;;;;;;10.05;7.90;;;;;;;;;;5028493;28;20064;-59
2023/06/15 04:21:36;;;;;;;8.52;6.47;;;;;;;;;;5032313;28;20441;-59
2023/06/15 04:24:04;;;;;;;9.73;7.35;;;;;;;;;;5033315;28;20064;-58
2023/06/15 04:26:31;;;;;;;8.10;6.70;;;;;;;;;;5033444;28;20490;-59
2023/06/15 04:28:58;;;;;;;11.07;7.25;;;;;;;;;;5033656;28;20046;-57
2023/06/15 04:31:25;;;;;;;9.20;6.78;;;;;;;;;;5032767;28;20143;-57
2023/06/15 04:33:58;;;;;;;10.18;7.80;;;;;;;;;;5032894;28;20045;-59
2023/06/15 04:36:25;;;;;;;9.55;6.85;;;;;;;;;;5033624;28;20080;-59
2023/06/15 04:38:52;;;;;;;8.35;6.45;;;;;;;;;;5033314;28;20053;-59
2023/06/15 04:41:22;;;;;;;8.65;6.22;;;;;;;;;;5033202;28;20370;-59
2023/06/15 04:43:49;;;;;;;8.77;6.80;;;;;;;;;;5032433;28;20056;-57
2023/06/15 04:46:16;;;;;;;9.73;7.95;;;;;;;;;;5033693;28;20057;-60
2023/06/15 04:48:44;;;;;;;10.00;7.63;;;;;;;;;;5033402;28;20137;-60
2023/06/15 04:51:13;;;;;;;11.50;7.65;;;;;;;;;;5033346;28;20078;-60
2023/06/15 04:53:42;;;;;;;8.82;7.43;;;;;;;;;;5032672;28;20053;-60
2023/06/15 04:56:09;;;;;;;9.43;6.82;;;;;;;;;;5032901;28;20064;-60
2023/06/15 04:58:36;;;;;;;9.73;7.07;;;;;;;;;;5032875;28;20498;-60
2023/06/15 05:01:02;;;;;;;10.02;7.72;;;;;;;;;;5033133;28;20442;-58
2023/06/15 05:03:29;;;;;;;10.82;7.55;;;;;;;;;;5032588;28;20057;-60
2023/06/15 05:05:56;;;;;;;9.02;7.28;;;;;;;;;;5033210;28;20421;-60
2023/06/15 05:08:25;;;;;;;10.63;7.25;;;;;;;;;;5033131;28;20057;-59
2023/06/15 05:10:52;;;;;;;10.20;7.32;;;;;;;;;;5032893;28;20095;-59
2023/06/15 05:13:22;;;;;;;9.32;7.32;;;;;;;;;;5032973;28;20049;-60
2023/06/15 05:15:49;;;;;;;9.52;7.07;;;;;;;;;;5032420;28;20466;-59
2023/06/15 05:18:16;;;;;;;10.38;6.32;;;;;;;;;;5032743;28;20502;-60
2023/06/15 05:20:43;;;;;;;8.98;7.20;;;;;;;;;;5032846;28;20049;-61
2023/06/15 05:23:10;;;;;;;8.55;7.18;;;;;;;;;;5032803;28;20053;-60
2023/06/15 05:25:38;;;;;;;8.90;7.50;;;;;;;;;;5032096;28;20056;-59
2023/06/15 05:28:05;;;;;;;8.32;6.80;;;;;;;;;;5031887;28;20115;-61
2023/06/15 05:30:35;;;;;;;9.18;7.05;;;;;;;;;;5032677;28;20564;-60
2023/06/15 05:33:02;;;;;;;11.95;7.60;;;;;;;;;;5032785;28;20057;-59
2023/06/15 05:35:29;;;;;;;9.55;7.20;;;;;;;;;;5032532;28;20431;-60
2023/06/15 05:37:56;;;;;;;10.27;6.85;;;;;;;;;;5032938;28;20057;-60
2023/06/15 05:40:23;;;;;;;9.23;6.88;;;;;;;;;;5032256;28;20525;-60
2023/06/15 05:42:51;;;;;;;8.55;6.82;;;;;;;;;;5032353;28;20051;-61
2023/06/15 05:45:18;;;;;;;10.13;7.50;;;;;;;;;;5032211;28;20088;-61
2023/06/15 05:47:45;;;;;;;9.27;7.35;;;;;;;;;;5032069;28;20041;-60
2023/06/15 05:50:12;;;;;;;8.57;6.85;;;;;;;;;;5032336;28;20454;-59
2023/06/15 05:52:39;;;;;;;8.98;7.00;;;;;;;;;;5032101;28;20037;-60
2023/06/15 05:55:07;;;;;;;8.75;7.03;;;;;;;;;;5032166;28;20594;-60
2023/06/15 05:57:35;;;;;;;10.10;6.90;;;;;;;;;;5032352;28;20103;-61
2023/06/15 06:00:04;;;;;;;7.85;6.38;;;;;;;;;;5031571;28;20483;-60
2023/06/15 06:02:30;;;;;;;8.13;6.32;;;;;;;;;;5031989;28;20053;-61
2023/06/15 06:04:57;;;;;;;7.70;5.50;;;;;;;;;;5032302;28;20053;-60
2023/06/15 06:07:25;;;;;;;7.93;6.05;;;;;;;;;;5032282;28;20072;-60
2023/06/15 06:09:52;;;;;;;7.97;6.47;;;;;;;;;;5032016;28;20050;-61
2023/06/15 06:12:19;;;;;;;8.13;6.28;;;;;;;;;;5031570;28;20056;-60
2023/06/15 06:14:46;;;;;;;9.73;6.63;;;;;;;;;;5032060;28;20148;-59
2023/06/15 06:17:14;;;;;;;10.40;7.07;;;;;;;;;;5031392;28;20132;-59
2023/06/15 06:19:41;;;;;;;8.05;6.38;;;;;;;;;;5031563;28;20053;-60
2023/06/15 06:22:08;;;;;;;9.05;7.10;;;;;;;;;;5033146;28;20062;-61
2023/06/15 06:24:35;;;;;;;7.78;6.50;;;;;;;;;;5031762;28;20437;-60
2023/06/15 06:27:02;;;;;;;8.27;6.32;;;;;;;;;;5031001;28;20114;-58
2023/06/15 06:29:29;;;;;;;10.27;7.32;;;;;;;;;;5031500;28;20085;-58
2023/06/15 06:31:56;;;;;;;10.68;7.35;;;;;;;;;;5031660;28;20046;-58
2023/06/15 06:34:24;;;;;;;10.07;7.25;;;;;;;;;;5032146;28;20091;-60
2023/06/15 06:36:51;;;;;;;9.07;6.53;;;;;;;;;;5031536;28;20045;-60
2023/06/15 06:39:18;;;;;;;8.43;7.03;;;;;;;;;;5030946;28;20064;-59
2023/06/15 06:41:45;;;;;;;8.73;6.32;;;;;;;;;;5030319;28;20049;-60
2023/06/15 06:44:14;;;;;;;10.60;7.63;;;;;;;;;;5031428;28;20406;-60
2023/06/15 06:46:41;;;;;;;9.40;7.05;;;;;;;;;;5031302;28;20060;-59
2023/06/15 06:49:08;;;;;;;8.68;6.53;;;;;;;;;;5031311;28;20049;-59
2023/06/15 06:51:37;;;;;;;10.15;6.45;;;;;;;;;;5031305;28;20483;-59
2023/06/15 06:54:04;;;;;;;10.15;6.32;;;;;;;;;;5029231;28;20062;-59
2023/06/15 06:56:31;;;;;;;9.48;6.53;;;;;;;;;;5030231;28;20056;-59
2023/06/15 06:58:58;;;;;;;7.57;6.70;;;;;;;;;;5030521;28;20387;-60
2023/06/15 07:01:25;;;;;;;9.35;7.22;;;;;;;;;;5029968;28;20049;-58
2023/06/15 07:03:52;;;;;;;8.38;6.40;;;;;;;;;;5030733;28;20322;-61
2023/06/15 07:06:19;;;;;;;8.43;6.85;;;;;;;;;;5050723;28;20669;-61
2023/06/15 07:08:47;;;;;;;8.85;6.82;;;;;;;;;;5038344;28;20132;-61
2023/06/15 07:11:15;;;;;;;7.40;6.30;;;;;;;;;;5030639;28;20549;-60
2023/06/15 07:13:42;;;;;;;8.43;6.97;;;;;;;;;;5030201;28;20076;-60
2023/06/15 07:16:09;;;;;;;9.32;7.03;;;;;;;;;;5029404;28;20072;-60
2023/06/15 07:18:35;;;;;;;9.70;6.70;;;;;;;;;;5029101;28;20053;-59
2023/06/15 07:21:02;;;;;;;9.23;6.47;;;;;;;;;;5032462;28;20052;-61
2023/06/15 07:23:29;;;;;;;9.68;6.53;;;;;;;;;;5050206;28;20064;-60
2023/06/15 07:25:58;;;;;;;7.63;6.60;;;;;;;;;;5037778;28;20049;-60
2023/06/15 07:28:24;;;;;;;8.57;6.28;;;;;;;;;;5030353;28;20053;-61
2023/06/15 07:30:51;;;;;;;8.40;6.63;;;;;;;;;;5029831;28;20049;-60
2023/06/15 07:33:19;;;;;;;8.63;6.70;;;;;;;;;;5029727;28;20057;-60
2023/06/15 07:35:46;;;;;;;9.15;6.60;;;;;;;;;;5029808;28;20061;-61
2023/06/15 07:38:14;;;;;;;8.07;5.97;;;;;;;;;;5043049;28;20049;-61
2023/06/15 07:40:41;;;;;;;9.50;6.70;;;;;;;;;;5038715;28;20057;-60
2023/06/15 07:43:10;;;;;;;8.93;6.68;;;;;;;;;;5044490;28;20057;-59
2023/06/15 07:45:37;;;;;;;9.43;6.75;;;;;;;;;;5048404;28;20461;-64
2023/06/15 07:48:04;;;;;;;9.07;6.68;;;;;;;;;;5029728;28;20053;-60
2023/06/15 07:50:31;;;;;;;9.23;6.65;;;;;;;;;;5029830;28;20095;-61
2023/06/15 07:52:58;;;;;;;9.32;7.10;;;;;;;;;;5028930;28;20041;-61
2023/06/15 07:55:25;;;;;;;10.77;7.10;;;;;;;;;;5030274;28;20506;-61
2023/06/15 07:57:52;;;;;;;9.68;6.20;;;;;;;;;;5029424;28;20075;-58
2023/06/15 08:00:21;;;;;;;8.70;6.68;;;;;;;;;;5029648;28;20490;-60
2023/06/15 08:02:49;;;;;;;10.90;7.10;;;;;;;;;;5029309;28;20068;-61
2023/06/15 08:05:16;;;;;;;10.73;6.90;;;;;;;;;;5028772;28;20054;-61
2023/06/15 08:07:43;;;;;;;10.32;7.50;;;;;;;;;;5024425;28;20419;-60
2023/06/15 08:10:11;;;;;;;9.18;7.15;;;;;;;;;;5009863;28;20056;-60
2023/06/15 08:12:38;;;;;;;8.85;6.18;;;;;;;;;;5011984;28;20119;-59
2023/06/15 08:15:06;;;;;;;9.88;6.53;;;;;;;;;;5029241;28;20525;-60
2023/06/15 08:17:34;;;;;;;8.05;6.47;;;;;;;;;;5029722;28;20056;-61
2023/06/15 08:20:01;;;;;;;10.63;6.97;;;;;;;;;;5029115;28;20127;-60
2023/06/15 08:22:29;;;;;;;9.23;7.13;;;;;;;;;;5029519;28;20135;-61
2023/06/15 08:24:57;;;;;;;8.85;6.40;;;;;;;;;;5031953;28;20416;-60
2023/06/15 08:27:24;;;;;;;9.30;7.10;;;;;;;;;;5029185;28;20045;-60
2023/06/15 08:29:52;;;;;;;8.07;6.35;;;;;;;;;;5029199;28;20049;-60
2023/06/15 08:32:18;;;;;;;9.50;6.63;;;;;;;;;;5029335;28;20395;-61
2023/06/15 08:34:47;;;;;;;9.32;7.18;;;;;;;;;;5028737;28;20050;-64
2023/06/15 08:37:14;;;;;;;14.88;7.05;;;;;;;;;;5029211;28;20060;-64
2023/06/15 08:39:41;;;;;;;8.70;6.57;;;;;;;;;;5029827;28;20061;-60
2023/06/15 08:42:09;;;;;;;7.90;6.25;;;;;;;;;;5029370;28;20061;-60
2023/06/15 08:44:36;;;;;;;7.75;5.97;;;;;;;;;;5036732;28;20044;-64
2023/06/15 08:47:05;;;;;;;7.40;6.30;;;;;;;;;;5049458;28;20045;-66
2023/06/15 08:49:32;;;;;;;7.50;5.65;;;;;;;;;;5029763;28;20535;-67
2023/06/15 08:52:02;;;;;;;7.60;5.85;;;;;;;;;;5028045;28;20053;-62
2023/06/15 08:54:31;;;;;;;8.18;6.20;;;;;;;;;;5027889;28;20053;-61
2023/06/15 08:56:59;;;;;;;8.25;6.45;;;;;;;;;;5029094;28;20135;-58
2023/06/15 08:59:26;;;;;;;9.45;6.88;;;;;;;;;;5029190;28;20053;-59
2023/06/15 09:01:55;;;;;;;8.73;6.07;;;;;;;;;;5024418;28;20411;-59
2023/06/15 09:04:22;;;;;;;8.05;5.75;;;;;;;;;;5028944;28;20402;-60
2023/06/15 09:06:50;;;;;;;8.48;6.55;;;;;;;;;;5032865;28;20055;-59
2023/06/15 09:09:18;;;;;;;8.25;6.03;;;;;;;;;;5032435;28;20052;-64
2023/06/15 09:11:45;;;;;;;6.88;5.72;;;;;;;;;;5033014;28;20085;-58
2023/06/15 09:14:12;;;;;;;6.43;5.57;;;;;;;;;;5032260;28;20084;-60
2023/06/15 09:16:39;;;;;;;6.95;5.90;;;;;;;;;;5033037;28;20048;-58
2023/06/15 09:19:11;;;;;;;7.10;5.32;;;;;;;;;;5032563;28;20049;-59
2023/06/15 09:21:43;;;;;;;5.88;5.15;;;;;;;;;;5032396;28;20399;-59
2023/06/15 09:24:11;;;;;;;7.53;5.30;;;;;;;;;;5032465;28;20187;-59
2023/06/15 09:26:40;;;;;;;7.95;5.43;;;;;;;;;;5032211;28;20045;-59
2023/06/15 09:29:11;;;;;;;8.00;5.88;;;;;;;;;;5012392;28;20053;-59
2023/06/15 09:31:40;;;;;;;8.02;5.90;;;;;;;;;;5012825;28;20049;-57
2023/06/15 09:34:08;;;;;;;7.93;5.85;;;;;;;;;;5012391;28;20053;-59
2023/06/15 09:36:38;;;;;;;7.00;5.70;;;;;;;;;;5012806;28;20077;-60
2023/06/15 09:39:05;;;;;;;8.43;5.72;;;;;;;;;;5012376;28;20146;-60
2023/06/15 09:41:33;;;;;;;8.52;5.70;;;;;;;;;;5021742;28;20084;-60
2023/06/15 09:44:05;;;;;;;7.63;5.72;;;;;;;;;;5032023;28;20406;-59
2023/06/15 09:46:32;;;;;;;8.05;6.32;;;;;;;;;;5032142;28;20092;-59
2023/06/15 09:48:59;;;;;;;8.90;6.20;;;;;;;;;;5031781;28;20088;-59
2023/06/15 09:51:29;;;;;;;7.90;6.00;;;;;;;;;;5021763;28;20503;-60
2023/06/15 09:53:57;;;;;;;9.82;6.63;;;;;;;;;;5012160;28;20069;-60
2023/06/15 09:56:25;;;;;;;9.45;6.95;;;;;;;;;;5030309;28;20486;-60
2023/06/15 09:58:52;;;;;;;8.48;5.60;;;;;;;;;;5031175;28;20099;-59
2023/06/15 10:01:24;;;;;;;7.85;6.28;;;;;;;;;;5032115;28;20509;-59
2023/06/15 10:03:53;;;;;;;7.68;6.53;;;;;;;;;;5031631;28;20052;-60
2023/06/15 10:06:22;;;;;;;8.63;7.53;;;;;;;;;;5027609;28;20050;-58
2023/06/15 10:08:54;;;;;;;14.13;8.52;;;;;;;;;;5042567;28;20049;-60
2023/06/15 10:11:21;;;;;;;10.45;7.82;;;;;;;;;;5051859;28;20533;-60
2023/06/15 10:13:52;;;;;;;9.88;6.68;;;;;;;;;;5032729;28;20053;-60
2023/06/15 10:16:21;;;;;;;9.60;6.57;;;;;;;;;;5030986;28;20406;-59
2023/06/15 10:18:53;;;;;;;8.93;6.22;;;;;;;;;;5031355;28;20136;-58
2023/06/15 10:21:26;;;;;;;9.20;6.38;;;;;;;;;;5031825;28;20123;-59
2023/06/15 10:23:56;;;;;;;8.32;6.40;;;;;;;;;;5032201;28;20053;-61
2023/06/15 10:26:23;;;;;;;7.70;6.35;;;;;;;;;;5031318;28;20143;-61
2023/06/15 10:28:56;;;;;;;7.82;6.07;;;;;;;;;;5031405;28;20069;-61
2023/06/15 10:31:30;;;;;;;9.50;6.45;;;;;;;;;;5031346;28;20491;-61
2023/06/15 10:34:03;;;;;;;8.23;6.78;;;;;;;;;;5031054;28;20050;-60
2023/06/15 10:36:31;;;;;;;9.00;6.05;;;;;;;;;;5031494;28;20684;-60
2023/06/15 10:39:06;;;;;;;8.32;6.50;;;;;;;;;;5031012;28;20092;-60
2023/06/15 10:41:37;;;;;;;6.72;6.03;;;;;;;;;;5031083;28;20053;-60
2023/06/15 10:44:05;;;;;;;7.95;6.35;;;;;;;;;;5030898;28;20095;-60
2023/06/15 10:46:34;;;;;;;9.27;6.40;;;;;;;;;;5030990;28;20443;-60
2023/06/15 10:49:04;;;;;;;7.47;6.68;;;;;;;;;;5029976;28;20400;-59
2023/06/15 10:51:35;;;;;;;7.10;6.10;;;;;;;;;;5030949;28;20730;-61
2023/06/15 10:54:03;;;;;;;7.97;6.53;;;;;;;;;;5030884;28;20064;-59
2023/06/15 10:56:31;;;;;;;9.60;6.40;;;;;;;;;;5030115;28;20140;-61
2023/06/15 10:59:00;;;;;;;6.75;5.90;;;;;;;;;;5029721;28;20099;-59
2023/06/15 11:01:28;;;;;;;7.28;6.38;;;;;;;;;;5030819;28;20144;-59
2023/06/15 11:03:57;;;;;;;8.43;6.35;;;;;;;;;;5030533;28;20689;-59
2023/06/15 11:06:31;;;;;;;10.53;6.60;;;;;;;;;;5030926;28;20053;-59
2023/06/15 11:09:03;;;;;;;8.77;5.47;;;;;;;;;;5030635;28;20406;-60
2023/06/15 11:11:32;;;;;;;7.85;6.40;;;;;;;;;;5030237;28;20052;-60
2023/06/15 11:14:02;;;;;;;9.95;6.03;;;;;;;;;;5030515;28;20046;-60
2023/06/15 11:16:34;;;;;;;8.52;6.40;;;;;;;;;;5057204;23;20505;-78
2023/06/15 11:19:24;;;;;;;7.63;5.85;;;;;;;;;;5050037;28;20052;-77
2023/06/15 11:21:59;;;;;;;6.80;5.63;;;;;;;;;;5050613;28;20060;-77
2023/06/15 11:24:26;;;;;;;7.93;6.07;;;;;;;;;;5050870;28;20075;-77
2023/06/15 11:26:56;;;;;;;7.50;5.45;;;;;;;;;;5057762;28;20056;-77
2023/06/15 11:29:25;;;;;;;7.53;5.47;;;;;;;;;;5051961;28;20073;-77
2023/06/15 11:31:52;;;;;;;7.47;5.97;;;;;;;;;;5050766;28;20056;-76
2023/06/15 11:34:19;;;;;;;7.50;5.65;;;;;;;;;;5052009;28;20099;-79
2023/06/15 11:36:50;;;;;;;9.00;5.70;;;;;;;;;;5052642;28;20514;-77
2023/06/15 11:39:22;;;;;;;7.53;5.60;;;;;;;;;;5049641;28;20492;-77
2023/06/15 11:41:50;;;;;;;10.43;6.28;;;;;;;;;;5048488;28;20136;-77
2023/06/15 11:44:17;;;;;;;7.97;6.30;;;;;;;;;;5051530;28;20054;-76
2023/06/15 11:46:43;;;;;;;7.78;5.82;;;;;;;;;;5051215;28;20110;-78
2023/06/15 11:49:17;;;;;;;7.57;6.30;;;;;;;;;;5051883;28;20684;-78
2023/06/15 11:51:47;;;;;;;7.93;5.95;;;;;;;;;;5050592;28;20058;-77
2023/06/15 11:54:15;;;;;;;9.10;5.97;;;;;;;;;;5051854;28;20087;-79
2023/06/15 11:56:46;;;;;;;6.93;5.88;;;;;;;;;;5051589;28;20053;-77
2023/06/15 11:59:15;;;;;;;9.13;5.85;;;;;;;;;;5050476;28;20053;-79
2023/06/15 12:01:42;;;;;;;7.50;5.82;;;;;;;;;;5051643;28;20461;-78
2023/06/15 12:04:12;;;;;;;7.70;5.90;;;;;;;;;;5051053;28;20096;-76
2023/06/15 12:06:40;;;;;;;9.10;6.57;;;;;;;;;;5054677;28;20095;-77
2023/06/15 12:09:08;;;;;;;6.90;5.60;;;;;;;;;;5070210;28;20050;-78
2023/06/15 12:11:37;;;;;;;9.15;6.10;;;;;;;;;;5070404;28;20049;-76
2023/06/15 12:14:07;;;;;;;7.03;5.70;;;;;;;;;;5070367;28;20131;-77
2023/06/15 12:16:34;;;;;;;;;;;;;;;;;;5070664;28;20110;-78
2023/06/15 12:19:01;;;;;;;7.22;5.05;;;;;;;;;;5068994;28;20263;-77
2023/06/15 12:21:33;;;;;;;8.02;5.38;;;;;;;;;;5073566;28;20070;-78
2023/06/15 12:24:00;;;;;;;7.15;5.65;;;;;;;;;;5073212;28;20067;-77
2023/06/15 12:26:32;;;;;;;6.28;5.30;;;;;;;;;;5070005;28;20041;-77
2023/06/15 12:29:00;;;;;;;6.13;4.93;;;;;;;;;;5071324;28;20048;-77
2023/06/15 12:31:36;;;;;;;7.03;5.30;;;;;;;;;;5032268;28;20500;-78
2023/06/15 12:34:09;;;;;;;7.18;5.07;;;;;;;;;;5033196;28;20081;-79
2023/06/15 12:36:38;;;;;;;6.43;5.07;;;;;;;;;;5030416;28;20053;-77
2023/06/15 12:39:07;;;;;;;5.60;4.93;;;;;;;;;;5030321;28;20079;-79
2023/06/15 12:41:33;;;;;;;7.82;5.22;;;;;;;;;;5033992;28;20619;-78
2023/06/15 12:44:02;;;;;;;6.88;6.10;;;;;;;;;;5037179;28;20049;-78
2023/06/15 12:46:28;;;;;;;8.05;5.25;;;;;;;;;;5036665;28;20045;-79
2023/06/15 12:48:55;;;;;;;6.63;4.95;;;;;;;;;;5037448;28;20538;-77
2023/06/15 12:51:23;;;;;;;7.50;5.07;;;;;;;;;;5039285;28;20045;-79
2023/06/15 12:53:49;;;;;;;5.78;4.75;;;;;;;;;;5037687;28;20536;-76
2023/06/15 12:56:16;;;;;;;6.80;5.15;;;;;;;;;;5035320;28;20100;-78
2023/06/15 12:58:43;;;;;;;5.63;4.70;;;;;;;;;;5034800;28;20049;-77
2023/06/15 13:01:11;;;;;;;6.93;5.05;;;;;;;;;;5034779;28;20046;-77
2023/06/15 13:03:38;;;;;;;6.90;4.63;;;;;;;;;;5044996;28;20087;-78
2023/06/15 13:06:05;;;;;;;6.47;4.90;;;;;;;;;;5057154;28;20083;-78
2023/06/15 13:08:32;;;;;;;5.43;4.57;;;;;;;;;;5057005;28;20041;-78
2023/06/15 13:10:59;;;;;;;6.72;4.82;;;;;;;;;;5056834;28;20060;-78
2023/06/15 13:13:26;;;;;;;5.53;4.40;;;;;;;;;;5055201;28;20064;-77
2023/06/15 13:15:53;;;;;;;5.63;4.53;;;;;;;;;;5054370;28;20045;-77
2023/06/15 13:18:21;;;;;;;7.40;4.95;;;;;;;;;;5054096;28;20048;-76
2023/06/15 13:20:48;;;;;;;6.38;4.50;;;;;;;;;;5061752;28;20072;-75
2023/06/15 13:23:15;;;;;;;5.18;3.95;;;;;;;;;;5073633;28;20049;-76
2023/06/15 13:25:42;;;;;;;5.93;4.47;;;;;;;;;;5061103;28;20076;-79
2023/06/15 13:28:08;;;;;;;10.13;4.57;;;;;;;;;;5054316;28;20052;-78
2023/06/15 13:30:35;;;;;;;5.10;4.03;;;;;;;;;;5055429;28;20083;-77
2023/06/15 13:33:02;;;;;;;5.78;4.38;;;;;;;;;;5054285;28;20093;-78
2023/06/15 13:35:30;;;;;;;6.57;4.88;;;;;;;;;;5053013;28;20048;-80
2023/06/15 13:37:58;;;;;;;5.07;4.32;;;;;;;;;;5052759;28;20049;-81
2023/06/15 13:40:25;;;;;;;5.30;4.15;;;;;;;;;;5052903;28;20613;-77
2023/06/15 13:42:52;;;;;;;5.22;4.60;;;;;;;;;;5055809;28;20107;-77
2023/06/15 13:45:21;;;;;;;7.30;4.80;;;;;;;;;;5052796;28;20049;-77
2023/06/15 13:47:48;;;;;;;5.63;4.65;;;;;;;;;;5053159;28;20041;-78
2023/06/15 13:50:16;;;;;;;6.80;4.68;;;;;;;;;;5051839;28;20558;-78
2023/06/15 13:52:48;;;;;;;6.57;5.20;;;;;;;;;;5052358;28;20216;-78
2023/06/15 13:55:15;;;;;;;8.23;5.32;;;;;;;;;;5052514;28;20083;-78
2023/06/15 13:57:42;;;;;;;6.60;4.47;;;;;;;;;;5056384;28;20049;-79
2023/06/15 14:00:09;;;;;;;5.50;4.60;;;;;;;;;;5058603;28;20100;-81
2023/06/15 14:02:36;;;;;;;5.22;4.47;;;;;;;;;;5057583;28;20124;-77
2023/06/15 14:05:03;;;;;;;6.70;4.82;;;;;;;;;;5052435;28;20049;-78
2023/06/15 14:07:30;;;;;;;5.78;4.43;;;;;;;;;;5053631;28;20052;-80
2023/06/15 14:09:58;;;;;;;7.82;5.18;;;;;;;;;;5056121;28;20049;-78
2023/06/15 14:12:25;;;;;;;5.95;4.88;;;;;;;;;;5055968;28;20084;-77
2023/06/15 14:14:52;;;;;;;6.82;4.68;;;;;;;;;;5052918;28;20052;-77
2023/06/15 14:17:19;;;;;;;7.13;5.70;;;;;;;;;;5056922;28;20045;-78
2023/06/15 14:19:46;;;;;;;8.13;5.90;;;;;;;;;;5057655;28;20114;-79
2023/06/15 14:22:13;;;;;;;6.72;5.25;;;;;;;;;;5055741;28;20041;-76
2023/06/15 14:24:40;;;;;;;6.55;5.43;;;;;;;;;;5054464;28;20184;-81
2023/06/15 14:27:08;;;;;;;7.18;5.57;;;;;;;;;;5054738;28;20041;-77
2023/06/15 14:30:03;;;;;;;7.22;5.55;;;;;;;;;;5057227;28;20049;-79
2023/06/15 14:32:29;;;;;;;6.82;5.40;;;;;;;;;;5051656;28;20052;-78
2023/06/15 14:34:56;;;;;;;6.80;5.28;;;;;;;;;;5054615;28;20048;-77
2023/06/15 14:37:23;;;;;;;7.50;5.60;;;;;;;;;;5052163;28;20049;-77
2023/06/15 14:39:50;;;;;;;6.00;5.40;;;;;;;;;;5057696;28;20037;-78
2023/06/15 14:42:19;;;;;;;7.90;5.70;;;;;;;;;;5053762;28;20040;-77
2023/06/15 14:44:54;;;;;;;7.40;5.50;;;;;;;;;;5054260;28;20487;-77
2023/06/15 14:47:27;;;;;;;6.82;5.30;;;;;;;;;;5064186;28;20049;-83
2023/06/15 14:49:54;;;;;;;6.43;5.63;;;;;;;;;;5070750;28;20045;-84